KCKN/CKN METAR and TAF weather

Enter ICAO airport designator
Station Type Date Time Source
KCKN METAR 2021/09/23 23:35 UTC NOAA

KCKN 232335Z AUTO 20008KT 10SM CLR 22/08 A2984 RMK AO2 PWINO


Station Type Date Time Source
KCKN Decoded METAR 2021/09/23 23:35 UTC NOAA

Crookston Municipal Field, MN, United States (KCKN) 47-51N 096-37W
Sep 23, 2021 - 07:35 PM EDT / 2021.09.23 2335 UTC
Wind: from the SSW (200 degrees) at 9 MPH (8 KT):0
Visibility: 10 mile(s):0
Sky conditions: clear
Temperature: 71 F (22 C)
Dew Point: 46 F (8 C)
Relative Humidity: 40%
Pressure (altimeter): 29.84 in. Hg (1010 hPa)
ob: KCKN 232335Z AUTO 20008KT 10SM CLR 22/08 A2984 RMK AO2 PWINO
cycle: 23

Station Type Date Time Source
KCKN TAF UTC NOAA

Error!

Example: see airport list